Time;durP1;ratioP1;P1;durP2;ratioP2;P2;SDS_P1;SDS_P2;PMS_P1;PMS_P2;Temp;Humidity;BMP_temperature;BMP_pressure;BME280_temperature;BME280_humidity;BME280_pressure;Samples;Min_cycle;Max_cycle;Signal;HPM_P1;HPM_P2
2023/04/22 00:01:41;;;;;;;12.65;9.35;;;12.40;92.70;;;;;;6156134;23;20013;-66
2023/04/22 00:04:07;;;;;;;11.85;9.57;;;12.30;92.60;;;;;;6156218;23;20073;-66
2023/04/22 00:06:34;;;;;;;13.82;9.88;;;12.30;92.70;;;;;;6155351;23;20006;-66
2023/04/22 00:09:00;;;;;;;11.30;8.90;;;12.30;92.70;;;;;;6156129;23;20006;-67
2023/04/22 00:11:25;;;;;;;14.15;9.10;;;12.20;92.70;;;;;;6156059;23;20072;-66
2023/04/22 00:13:51;;;;;;;9.80;8.23;;;12.20;92.80;;;;;;6156114;23;20025;-66
2023/04/22 00:16:17;;;;;;;11.70;7.63;;;12.20;92.60;;;;;;6155923;23;20001;-67
2023/04/22 00:18:43;;;;;;;10.88;7.25;;;12.20;92.50;;;;;;6155958;23;20380;-67
2023/04/22 00:21:08;;;;;;;7.82;6.93;;;12.10;92.40;;;;;;6156165;23;20012;-66
2023/04/22 00:23:34;;;;;;;10.85;6.70;;;12.10;92.40;;;;;;6155800;23;20324;-66
2023/04/22 00:26:01;;;;;;;9.75;7.30;;;12.10;92.30;;;;;;6155877;23;20012;-67
2023/04/22 00:28:27;;;;;;;8.05;7.25;;;12.10;92.30;;;;;;6155703;23;20383;-66
2023/04/22 00:30:52;;;;;;;10.50;7.65;;;12.10;92.30;;;;;;6155834;23;20002;-67
2023/04/22 00:33:18;;;;;;;9.48;7.88;;;12.10;92.30;;;;;;6155600;23;20009;-66
2023/04/22 00:35:47;;;;;;;9.32;8.38;;;12.10;92.40;;;;;;6155897;23;20009;-66
2023/04/22 00:38:13;;;;;;;12.02;8.65;;;12.10;92.40;;;;;;6155844;23;20005;-66
2023/04/22 00:40:39;;;;;;;12.95;8.07;;;12.00;92.50;;;;;;6155856;23;20089;-66
2023/04/22 00:43:05;;;;;;;11.77;8.27;;;12.00;92.40;;;;;;6155906;23;20025;-66
2023/04/22 00:45:30;;;;;;;15.02;8.88;;;12.00;92.40;;;;;;6155346;23;20038;-67
2023/04/22 00:47:56;;;;;;;10.43;8.80;;;12.00;92.50;;;;;;6155799;23;19997;-66
2023/04/22 00:50:22;;;;;;;11.88;9.07;;;11.90;92.60;;;;;;6155409;23;20436;-66
2023/04/22 00:52:48;;;;;;;9.10;8.05;;;11.90;92.60;;;;;;6155106;23;20439;-66
2023/04/22 00:55:14;;;;;;;11.02;9.18;;;11.80;92.60;;;;;;6155425;23;20002;-66
2023/04/22 00:57:40;;;;;;;14.95;8.75;;;11.80;92.60;;;;;;6154101;23;20080;-67
2023/04/22 01:00:08;;;;;;;12.48;8.55;;;11.80;92.60;;;;;;6152002;23;20005;-66
2023/04/22 01:02:37;;;;;;;16.65;9.38;;;11.80;92.70;;;;;;6151933;23;20014;-66
2023/04/22 01:05:03;;;;;;;12.70;9.60;;;11.70;92.70;;;;;;6153391;23;20416;-66
2023/04/22 01:07:29;;;;;;;12.38;9.35;;;11.70;92.80;;;;;;6155621;23;20432;-66
2023/04/22 01:09:56;;;;;;;14.27;9.30;;;11.70;92.80;;;;;;6155541;23;20080;-66
2023/04/22 01:12:21;;;;;;;11.32;9.55;;;11.70;92.80;;;;;;6155057;23;20033;-66
2023/04/22 01:14:47;;;;;;;11.40;9.38;;;11.70;92.80;;;;;;6154881;23;20036;-66
2023/04/22 01:17:15;;;;;;;16.15;9.73;;;11.70;92.80;;;;;;6155414;23;20028;-66
2023/04/22 01:19:42;;;;;;;11.45;9.40;;;11.70;92.80;;;;;;6155255;23;19998;-66
2023/04/22 01:22:10;;;;;;;12.77;8.80;;;11.60;92.80;;;;;;6154933;23;20001;-66
2023/04/22 01:24:36;;;;;;;11.23;9.57;;;11.60;92.80;;;;;;6155048;23;20435;-66
2023/04/22 01:27:02;;;;;;;16.13;9.30;;;11.60;92.90;;;;;;6155231;23;19997;-66
2023/04/22 01:29:28;;;;;;;14.40;9.95;;;11.60;92.90;;;;;;6154610;23;20006;-67
2023/04/22 01:31:54;;;;;;;9.95;8.32;;;11.60;92.90;;;;;;6155335;23;20468;-67
2023/04/22 01:34:21;;;;;;;10.45;9.13;;;11.50;92.90;;;;;;6155176;23;20017;-66
2023/04/22 01:36:47;;;;;;;10.68;9.13;;;11.50;93.00;;;;;;6155009;23;20021;-67
2023/04/22 01:39:13;;;;;;;11.27;9.35;;;11.50;93.00;;;;;;6155378;23;20005;-67
2023/04/22 01:41:39;;;;;;;13.77;10.38;;;11.50;93.20;;;;;;6155156;23;20008;-67
2023/04/22 01:44:05;;;;;;;10.88;8.82;;;11.50;93.20;;;;;;6154478;23;20371;-66
2023/04/22 01:46:32;;;;;;;13.18;8.95;;;11.50;93.60;;;;;;6155143;23;20025;-66
2023/04/22 01:48:58;;;;;;;10.95;9.35;;;11.50;93.40;;;;;;6155310;23;20005;-66
2023/04/22 01:51:24;;;;;;;12.45;8.73;;;11.50;93.30;;;;;;6155163;23;20026;-66
2023/04/22 01:53:50;;;;;;;13.07;9.60;;;11.50;93.30;;;;;;6155145;23;20009;-67
2023/04/22 01:56:16;;;;;;;10.50;8.80;;;11.50;93.30;;;;;;6155146;23;20009;-67
2023/04/22 01:58:42;;;;;;;12.43;9.20;;;11.50;93.30;;;;;;6155258;23;20009;-66
2023/04/22 02:01:09;;;;;;;10.60;9.50;;;11.50;93.30;;;;;;6155180;23;20097;-66
2023/04/22 02:03:36;;;;;;;15.20;9.00;;;11.50;93.30;;;;;;6155084;23;20010;-66
2023/04/22 02:06:01;;;;;;;11.30;8.57;;;11.40;93.30;;;;;;6155529;23;20005;-66
2023/04/22 02:08:27;;;;;;;9.90;8.63;;;11.40;93.20;;;;;;6155362;23;20006;-66
2023/04/22 02:10:53;;;;;;;11.07;8.98;;;11.40;93.20;;;;;;6155293;23;20064;-66
2023/04/22 02:13:19;;;;;;;12.00;8.50;;;11.40;93.20;;;;;;6155147;23;20033;-66
2023/04/22 02:15:44;;;;;;;13.10;8.13;;;11.40;93.20;;;;;;6155175;23;20008;-66
2023/04/22 02:18:10;;;;;;;11.00;8.48;;;11.30;93.20;;;;;;6155285;23;20072;-66
2023/04/22 02:20:36;;;;;;;12.77;8.18;;;11.30;93.10;;;;;;6155230;23;20048;-66
2023/04/22 02:23:02;;;;;;;9.80;8.60;;;11.30;93.10;;;;;;6155271;23;20005;-66
2023/04/22 02:25:29;;;;;;;11.95;7.75;;;11.30;93.10;;;;;;6154835;23;20005;-66
2023/04/22 02:27:55;;;;;;;10.57;7.97;;;11.30;93.20;;;;;;6155195;23;20017;-66
2023/04/22 02:30:21;;;;;;;9.18;7.50;;;11.20;93.10;;;;;;6156626;23;20004;-66
2023/04/22 02:32:47;;;;;;;10.43;8.10;;;11.20;93.20;;;;;;6156687;23;20752;-66
2023/04/22 02:35:13;;;;;;;8.18;6.45;;;11.20;93.10;;;;;;6156704;23;20025;-66
2023/04/22 02:37:38;;;;;;;7.00;6.30;;;11.20;93.20;;;;;;6156861;23;19997;-66
2023/04/22 02:40:06;;;;;;;8.07;5.85;;;11.10;93.20;;;;;;6156687;23;20056;-67
2023/04/22 02:42:32;;;;;;;6.78;5.65;;;11.10;93.20;;;;;;6157042;23;20009;-66
2023/04/22 02:44:58;;;;;;;9.73;6.00;;;11.10;93.30;;;;;;6156928;23;20005;-67
2023/04/22 02:47:24;;;;;;;6.78;6.07;;;11.10;93.30;;;;;;6156482;23;20005;-66
2023/04/22 02:49:49;;;;;;;6.78;5.57;;;11.10;93.20;;;;;;6156559;23;20081;-66
2023/04/22 02:52:15;;;;;;;7.07;5.97;;;11.10;93.10;;;;;;6156498;23;20135;-65
2023/04/22 02:54:41;;;;;;;8.70;6.18;;;11.10;93.10;;;;;;6156464;23;20023;-66
2023/04/22 02:57:07;;;;;;;7.63;6.07;;;11.10;93.10;;;;;;6156282;23;20009;-66
2023/04/22 02:59:35;;;;;;;7.65;6.00;;;11.10;93.10;;;;;;6156803;23;20008;-66
2023/04/22 03:02:01;;;;;;;11.80;7.40;;;11.10;93.10;;;;;;6156502;23;20324;-66
2023/04/22 03:04:27;;;;;;;9.73;7.43;;;11.00;93.10;;;;;;6156358;23;20040;-66
2023/04/22 03:06:52;;;;;;;12.75;8.07;;;11.00;93.20;;;;;;6156387;23;20328;-65
2023/04/22 03:09:18;;;;;;;9.13;7.32;;;11.00;93.20;;;;;;6156254;23;20002;-66
2023/04/22 03:11:44;;;;;;;6.93;6.25;;;11.00;93.20;;;;;;6156618;23;20006;-66
2023/04/22 03:14:10;;;;;;;9.57;6.60;;;11.00;93.30;;;;;;6156774;23;20022;-66
2023/04/22 03:16:36;;;;;;;7.60;6.60;;;11.00;93.30;;;;;;6156386;23;19997;-66
2023/04/22 03:19:01;;;;;;;10.85;6.13;;;11.00;93.20;;;;;;6156326;23;20246;-66
2023/04/22 03:21:27;;;;;;;6.18;5.57;;;11.00;93.20;;;;;;6156370;23;20002;-66
2023/04/22 03:23:53;;;;;;;11.00;6.22;;;11.00;93.10;;;;;;6155921;23;20002;-66
2023/04/22 03:26:19;;;;;;;8.23;5.97;;;10.90;93.20;;;;;;6156285;23;20009;-66
2023/04/22 03:28:45;;;;;;;7.18;6.25;;;10.90;93.30;;;;;;6156457;23;20001;-66
2023/04/22 03:31:11;;;;;;;9.27;6.75;;;10.90;93.30;;;;;;6156185;23;20020;-66
2023/04/22 03:33:37;;;;;;;12.93;6.10;;;10.80;93.30;;;;;;6156450;23;20328;-66
2023/04/22 03:36:03;;;;;;;14.13;7.53;;;10.80;93.30;;;;;;6156422;23;19998;-66
2023/04/22 03:38:28;;;;;;;7.43;6.72;;;10.80;93.30;;;;;;6156567;23;20005;-66
2023/04/22 03:40:54;;;;;;;7.38;6.03;;;10.80;93.30;;;;;;6156209;23;20028;-66
2023/04/22 03:43:20;;;;;;;9.18;6.90;;;10.80;93.40;;;;;;6156549;23;20033;-66
2023/04/22 03:45:46;;;;;;;10.43;6.75;;;10.80;93.30;;;;;;6156225;23;20002;-65
2023/04/22 03:48:12;;;;;;;8.00;6.72;;;10.80;93.30;;;;;;6155927;23;20069;-66
2023/04/22 03:50:37;;;;;;;8.70;6.28;;;10.80;93.30;;;;;;6155843;23;20068;-66
2023/04/22 03:53:03;;;;;;;11.63;7.63;;;10.70;93.30;;;;;;6155963;23;20020;-66
2023/04/22 03:55:29;;;;;;;7.53;6.72;;;10.70;93.20;;;;;;6156142;23;20076;-66
2023/04/22 03:57:55;;;;;;;8.98;6.72;;;10.70;93.20;;;;;;6155894;23;20016;-66
2023/04/22 04:00:21;;;;;;;9.45;6.68;;;10.70;93.20;;;;;;6156335;23;20006;-66
2023/04/22 04:02:46;;;;;;;10.48;7.10;;;10.70;93.30;;;;;;6155975;23;20328;-66
2023/04/22 04:05:12;;;;;;;12.80;7.15;;;10.60;93.30;;;;;;6155666;23;19997;-66
2023/04/22 04:07:38;;;;;;;16.00;7.53;;;10.60;93.30;;;;;;6155974;23;20012;-65
2023/04/22 04:10:04;;;;;;;11.30;7.22;;;10.60;93.40;;;;;;6155689;23;19997;-65
2023/04/22 04:12:30;;;;;;;9.73;7.40;;;10.50;93.30;;;;;;6155843;23;20010;-66
2023/04/22 04:14:56;;;;;;;9.75;7.55;;;10.50;93.30;;;;;;6156087;23;20008;-67
2023/04/22 04:17:24;;;;;;;10.57;7.43;;;10.50;93.30;;;;;;6155685;23;20001;-67
2023/04/22 04:19:51;;;;;;;8.60;6.93;;;10.50;93.30;;;;;;6155916;23;20324;-66
2023/04/22 04:22:17;;;;;;;8.32;7.47;;;10.50;93.40;;;;;;6155475;23;20006;-66
2023/04/22 04:24:43;;;;;;;9.95;7.63;;;10.40;93.50;;;;;;6129964;23;20310;-67
2023/04/22 04:27:10;;;;;;;13.35;7.32;;;10.40;93.50;;;;;;6155768;23;20002;-67
2023/04/22 04:29:36;;;;;;;8.05;7.25;;;10.40;93.60;;;;;;6155859;23;19998;-66
2023/04/22 04:32:03;;;;;;;8.25;7.45;;;10.30;93.60;;;;;;6155798;23;20436;-67
2023/04/22 04:34:29;;;;;;;11.07;7.65;;;10.30;93.70;;;;;;6155569;23;20006;-66
2023/04/22 04:36:55;;;;;;;10.05;7.82;;;10.30;93.60;;;;;;6155706;23;20036;-67
2023/04/22 04:39:21;;;;;;;14.73;8.17;;;10.30;93.70;;;;;;6155867;23;20002;-66
2023/04/22 04:41:47;;;;;;;8.30;7.50;;;10.30;93.70;;;;;;6155959;23;20013;-65
2023/04/22 04:44:14;;;;;;;11.65;8.45;;;10.30;93.70;;;;;;6155782;23;20010;-66
2023/04/22 04:46:40;;;;;;;10.55;7.78;;;10.20;93.60;;;;;;6155485;23;20010;-66
2023/04/22 04:49:08;;;;;;;9.07;7.30;;;10.20;93.50;;;;;;6155555;23;20029;-66
2023/04/22 04:51:34;;;;;;;11.60;8.15;;;10.20;93.60;;;;;;6155097;23;20026;-66
2023/04/22 04:54:00;;;;;;;8.35;7.50;;;10.20;93.70;;;;;;6155563;23;20035;-66
2023/04/22 04:56:26;;;;;;;7.80;7.07;;;10.20;93.80;;;;;;6155116;23;20072;-66
2023/04/22 04:58:51;;;;;;;8.65;7.50;;;10.20;93.90;;;;;;6155300;23;20281;-66
2023/04/22 05:01:17;;;;;;;9.70;7.47;;;10.30;94.00;;;;;;6155058;23;20009;-67
2023/04/22 05:03:43;;;;;;;11.15;7.55;;;10.30;94.00;;;;;;6155638;23;20005;-66
2023/04/22 05:06:09;;;;;;;12.15;7.70;;;10.40;94.20;;;;;;6155514;23;20024;-66
2023/04/22 05:08:35;;;;;;;9.30;7.53;;;10.40;94.20;;;;;;6155319;23;20424;-66
2023/04/22 05:11:01;;;;;;;11.83;6.93;;;10.40;94.30;;;;;;6155574;23;20016;-66
2023/04/22 05:13:27;;;;;;;9.17;7.30;;;10.40;94.50;;;;;;6155058;23;20013;-66
2023/04/22 05:15:52;;;;;;;8.70;7.43;;;10.40;94.20;;;;;;6155773;23;20006;-67
2023/04/22 05:18:18;;;;;;;7.90;6.87;;;10.40;94.30;;;;;;6155310;23;20020;-67
2023/04/22 05:20:44;;;;;;;15.98;7.50;;;10.40;94.30;;;;;;6155262;23;20317;-67
2023/04/22 05:23:10;;;;;;;17.05;8.73;;;10.50;94.50;;;;;;6154990;23;20091;-67
2023/04/22 05:25:35;;;;;;;15.47;7.93;;;10.60;94.50;;;;;;6155258;23;20012;-66
2023/04/22 05:28:01;;;;;;;10.73;8.00;;;10.60;94.70;;;;;;6155097;23;20006;-66
2023/04/22 05:30:27;;;;;;;10.13;7.43;;;10.70;94.70;;;;;;6154652;23;19997;-66
2023/04/22 05:32:53;;;;;;;9.32;7.65;;;10.80;94.60;;;;;;6155195;23;20463;-67
2023/04/22 05:35:18;;;;;;;9.55;7.80;;;10.80;94.60;;;;;;6155221;23;20017;-66
2023/04/22 05:37:44;;;;;;;9.23;7.60;;;10.90;94.70;;;;;;6155386;23;20078;-66
2023/04/22 05:40:10;;;;;;;12.15;8.35;;;10.90;94.60;;;;;;6155077;23;20370;-67
2023/04/22 05:42:36;;;;;;;8.52;7.72;;;11.00;94.70;;;;;;6154918;23;20064;-66
2023/04/22 05:45:01;;;;;;;9.02;8.02;;;11.00;94.50;;;;;;6155086;23;20002;-66
2023/04/22 05:47:28;;;;;;;8.77;7.50;;;11.10;94.50;;;;;;6155223;23;20006;-66
2023/04/22 05:49:54;;;;;;;9.98;8.00;;;11.10;94.50;;;;;;6154881;23;20010;-66
2023/04/22 05:52:19;;;;;;;9.60;7.95;;;11.10;94.50;;;;;;6154755;23;20096;-66
2023/04/22 05:54:45;;;;;;;8.77;7.88;;;11.10;94.50;;;;;;6154816;23;20021;-66
2023/04/22 05:57:11;;;;;;;9.93;7.22;;;11.20;94.60;;;;;;6129411;23;20013;-66
2023/04/22 05:59:37;;;;;;;8.73;7.45;;;11.20;94.70;;;;;;6155175;23;20001;-66
2023/04/22 06:02:03;;;;;;;12.43;7.90;;;11.30;94.70;;;;;;6155284;23;20009;-66
2023/04/22 06:04:28;;;;;;;8.63;7.13;;;11.40;94.80;;;;;;6156629;23;20035;-66
2023/04/22 06:06:55;;;;;;;10.13;7.60;;;11.40;94.80;;;;;;6157103;23;20005;-66
2023/04/22 06:09:21;;;;;;;9.45;8.07;;;11.50;94.70;;;;;;6157374;23;20413;-66
2023/04/22 06:11:47;;;;;;;9.00;7.22;;;11.50;94.70;;;;;;6156964;23;20428;-66
2023/04/22 06:14:13;;;;;;;10.27;8.00;;;11.60;94.70;;;;;;6156344;23;20424;-66
2023/04/22 06:16:38;;;;;;;8.25;6.45;;;11.70;94.60;;;;;;6156435;23;20005;-66
2023/04/22 06:19:05;;;;;;;8.98;7.43;;;11.80;94.60;;;;;;6156837;23;20499;-66
2023/04/22 06:21:36;;;;;;;10.63;7.60;;;11.80;94.70;;;;;;6155683;23;20012;-66
2023/04/22 06:24:04;;;;;;;14.18;8.00;;;11.90;94.70;;;;;;6156146;23;20037;-66
2023/04/22 06:26:29;;;;;;;9.35;8.10;;;12.00;94.70;;;;;;6156844;23;20088;-66
2023/04/22 06:28:55;;;;;;;8.13;7.32;;;12.00;94.70;;;;;;6156845;23;20389;-65
2023/04/22 06:31:21;;;;;;;9.55;8.00;;;12.00;94.70;;;;;;6157010;23;20052;-65
2023/04/22 06:33:47;;;;;;;10.05;8.45;;;12.10;94.70;;;;;;6156298;23;20014;-66
2023/04/22 06:36:13;;;;;;;9.07;8.00;;;12.10;94.60;;;;;;6156643;23;20004;-66
2023/04/22 06:38:38;;;;;;;14.48;7.40;;;12.20;94.50;;;;;;6156388;23;20417;-65
2023/04/22 06:41:05;;;;;;;10.02;8.25;;;12.20;94.40;;;;;;6156326;23;20061;-65
2023/04/22 06:43:31;;;;;;;12.05;7.82;;;12.30;94.40;;;;;;6154642;23;20340;-66
2023/04/22 06:45:56;;;;;;;13.20;9.10;;;12.30;94.20;;;;;;6130662;23;20005;-66
2023/04/22 06:48:23;;;;;;;11.35;8.93;;;12.40;94.10;;;;;;6156882;23;20060;-66
2023/04/22 06:50:49;;;;;;;10.10;7.72;;;12.40;94.30;;;;;;6156776;23;20504;-66
2023/04/22 06:53:14;;;;;;;11.00;7.78;;;12.50;94.30;;;;;;6154564;23;20009;-66
2023/04/22 06:55:40;;;;;;;12.15;7.82;;;12.60;94.30;;;;;;6155494;23;20016;-66
2023/04/22 06:58:06;;;;;;;7.90;6.57;;;12.60;94.10;;;;;;6156157;23;20368;-66
2023/04/22 07:00:32;;;;;;;9.20;6.75;;;12.70;93.90;;;;;;6156260;23;20009;-66
2023/04/22 07:02:57;;;;;;;9.23;6.47;;;12.70;93.80;;;;;;6156205;23;20013;-66
2023/04/22 07:05:23;;;;;;;7.78;6.55;;;12.80;93.80;;;;;;6156237;23;20005;-66
2023/04/22 07:07:49;;;;;;;7.38;6.65;;;12.80;93.70;;;;;;6156619;23;20005;-66
2023/04/22 07:10:15;;;;;;;6.63;5.88;;;12.90;93.80;;;;;;6156836;23;20006;-66
2023/04/22 07:12:40;;;;;;;10.20;5.57;;;12.90;93.80;;;;;;6156310;23;20073;-66
2023/04/22 07:15:07;;;;;;;8.10;5.63;;;13.00;93.60;;;;;;6156292;23;20037;-66
2023/04/22 07:17:33;;;;;;;7.60;5.47;;;13.10;93.40;;;;;;6156891;23;20009;-66
2023/04/22 07:19:58;;;;;;;6.80;5.13;;;13.10;93.00;;;;;;6156475;23;20005;-66
2023/04/22 07:22:24;;;;;;;9.82;5.63;;;13.10;92.80;;;;;;6156166;23;20312;-66
2023/04/22 07:24:50;;;;;;;5.65;4.97;;;13.20;92.90;;;;;;6156194;23;20084;-67
2023/04/22 07:27:16;;;;;;;6.30;5.40;;;13.30;92.80;;;;;;6153857;23;20017;-67
2023/04/22 07:29:42;;;;;;;7.28;5.03;;;13.30;92.40;;;;;;6153036;23;20112;-67
2023/04/22 07:32:07;;;;;;;7.05;5.35;;;13.40;92.30;;;;;;6152932;23;20013;-68
2023/04/22 07:34:33;;;;;;;6.38;5.15;;;13.50;92.30;;;;;;6155458;23;20009;-68
2023/04/22 07:36:59;;;;;;;15.32;5.15;;;13.50;91.90;;;;;;6153932;23;20028;-68
2023/04/22 07:39:25;;;;;;;7.03;4.38;;;13.60;91.60;;;;;;6153231;23;20040;-67
2023/04/22 07:41:52;;;;;;;9.30;4.43;;;13.70;91.60;;;;;;6154849;23;20073;-67
2023/04/22 07:44:20;;;;;;;5.38;4.22;;;13.70;91.20;;;;;;6156200;23;19998;-67
2023/04/22 07:46:47;;;;;;;6.38;3.92;;;13.90;91.20;;;;;;6156372;23;20002;-67
2023/04/22 07:49:12;;;;;;;8.75;4.20;;;13.90;91.10;;;;;;6155915;23;20002;-66
2023/04/22 07:51:39;;;;;;;7.35;4.10;;;14.00;90.90;;;;;;6155729;23;20024;-67
2023/04/22 07:54:05;;;;;;;7.38;4.25;;;14.10;90.70;;;;;;6156148;23;20013;-67
2023/04/22 07:56:31;;;;;;;7.15;4.40;;;14.20;90.60;;;;;;6156043;23;20025;-67
2023/04/22 07:58:57;;;;;;;8.23;4.38;;;14.30;90.50;;;;;;6155909;23;20037;-67
2023/04/22 08:01:22;;;;;;;5.40;4.20;;;14.30;90.80;;;;;;6156247;23;20002;-67
2023/04/22 08:03:48;;;;;;;4.60;3.88;;;14.40;90.60;;;;;;6156166;23;20012;-66
2023/04/22 08:06:14;;;;;;;4.15;3.45;;;14.50;90.40;;;;;;6156202;23;20045;-67
2023/04/22 08:08:39;;;;;;;5.57;4.22;;;14.60;90.00;;;;;;6156003;23;20005;-67
2023/04/22 08:11:06;;;;;;;6.07;4.20;;;14.70;88.70;;;;;;6156102;23;20100;-66
2023/04/22 08:13:32;;;;;;;7.97;3.78;;;14.80;88.60;;;;;;6155753;23;20462;-66
2023/04/22 08:16:02;;;;;;;5.78;3.90;;;14.90;88.30;;;;;;6155581;23;20021;-66
2023/04/22 08:18:28;;;;;;;3.85;3.05;;;14.90;86.70;;;;;;6154730;23;20029;-67
2023/04/22 08:20:54;;;;;;;5.25;3.05;;;15.00;86.00;;;;;;6155680;23;19998;-66
2023/04/22 08:23:20;;;;;;;4.70;3.30;;;15.00;83.70;;;;;;6156157;23;20013;-67
2023/04/22 08:25:46;;;;;;;5.60;3.33;;;15.10;83.80;;;;;;6156092;23;20408;-66
2023/04/22 08:28:12;;;;;;;7.38;3.10;;;15.20;84.50;;;;;;6156133;23;20020;-66
2023/04/22 08:30:38;;;;;;;6.47;3.50;;;15.30;84.80;;;;;;6156387;23;20435;-66
2023/04/22 08:33:04;;;;;;;5.22;3.53;;;15.30;84.60;;;;;;6155380;23;20017;-66
2023/04/22 08:35:30;;;;;;;4.70;3.30;;;15.50;85.10;;;;;;6155335;23;20068;-66
2023/04/22 08:37:56;;;;;;;5.28;3.00;;;15.50;84.30;;;;;;6155752;23;20302;-66
2023/04/22 08:40:21;;;;;;;3.83;2.72;;;15.60;83.70;;;;;;6155503;23;20002;-66
2023/04/22 08:42:48;;;;;;;4.50;2.90;;;15.70;82.80;;;;;;6155666;23;20002;-66
2023/04/22 08:45:15;;;;;;;4.10;3.20;;;15.80;82.70;;;;;;6155862;23;20013;-66
2023/04/22 08:47:42;;;;;;;4.68;3.00;;;15.80;83.10;;;;;;6153151;23;19998;-67
2023/04/22 08:50:08;;;;;;;5.88;2.50;;;15.90;82.40;;;;;;6153723;23;20447;-66
2023/04/22 08:52:34;;;;;;;3.13;2.60;;;16.00;81.10;;;;;;6152691;23;20085;-67
2023/04/22 08:55:00;;;;;;;3.67;2.50;;;16.00;80.50;;;;;;6154892;23;20033;-67
2023/04/22 08:57:27;;;;;;;4.80;2.63;;;16.10;78.60;;;;;;6155433;23;20006;-67
2023/04/22 08:59:55;;;;;;;7.53;2.60;;;16.10;78.90;;;;;;6155404;23;19997;-67
2023/04/22 09:02:22;;;;;;;6.65;2.40;;;16.20;79.00;;;;;;6154502;23;20335;-68
2023/04/22 09:04:51;;;;;;;5.10;2.50;;;16.30;78.90;;;;;;6154024;23;20012;-67
2023/04/22 09:07:23;;;;;;;3.50;2.28;;;16.40;77.90;;;;;;6155225;23;20087;-67
2023/04/22 09:09:50;;;;;;;6.00;2.90;;;16.50;78.40;;;;;;6155827;23;20327;-67
2023/04/22 09:12:18;;;;;;;4.43;2.90;;;16.60;77.70;;;;;;6156072;23;20035;-67
2023/04/22 09:14:44;;;;;;;5.43;2.70;;;16.60;77.10;;;;;;6155200;23;20002;-67
2023/04/22 09:17:13;;;;;;;4.40;2.58;;;16.70;76.70;;;;;;6155686;23;20005;-66
2023/04/22 09:19:39;;;;;;;5.60;2.60;;;16.80;76.20;;;;;;6156083;23;20002;-67
2023/04/22 09:22:08;;;;;;;3.80;2.55;;;16.80;76.00;;;;;;6154481;23;20009;-67
2023/04/22 09:24:34;;;;;;;5.63;2.63;;;16.90;75.30;;;;;;6154391;23;20447;-66
2023/04/22 09:27:04;;;;;;;4.63;2.65;;;16.90;75.40;;;;;;6154912;23;20029;-67
2023/04/22 09:29:30;;;;;;;6.93;2.80;;;17.00;74.70;;;;;;6154941;23;20451;-67
2023/04/22 09:31:56;;;;;;;5.85;3.15;;;17.10;74.70;;;;;;6155893;23;20081;-67
2023/04/22 09:34:22;;;;;;;3.80;2.90;;;17.20;74.10;;;;;;6155053;23;20091;-66
2023/04/22 09:36:50;;;;;;;4.03;3.05;;;17.30;72.20;;;;;;6155601;23;20011;-66
2023/04/22 09:39:17;;;;;;;3.72;3.00;;;17.40;71.80;;;;;;6154042;23;20012;-66
2023/04/22 09:41:43;;;;;;;3.80;2.58;;;17.50;72.40;;;;;;6155544;23;20005;-67
2023/04/22 09:44:14;;;;;;;6.25;3.20;;;17.60;73.90;;;;;;6155318;23;20008;-67
2023/04/22 09:46:42;;;;;;;5.33;3.30;;;17.70;73.10;;;;;;6129586;23;20013;-67
2023/04/22 09:49:08;;;;;;;4.75;3.25;;;17.80;71.60;;;;;;6155300;23;20684;-67
2023/04/22 09:51:33;;;;;;;5.13;3.17;;;17.90;71.90;;;;;;6155176;23;20083;-66
2023/04/22 09:54:07;;;;;;;4.75;3.38;;;17.90;72.50;;;;;;6155605;23;20013;-67
2023/04/22 09:56:47;;;;;;;6.03;3.30;;;18.00;72.40;;;;;;6155692;23;20032;-67
2023/04/22 09:59:22;;;;;;;4.40;3.20;;;18.10;72.40;;;;;;6155152;23;20012;-67
2023/04/22 10:01:53;;;;;;;4.25;3.20;;;18.20;71.90;;;;;;6155456;23;20076;-67
2023/04/22 10:04:23;;;;;;;5.30;3.20;;;18.30;71.60;;;;;;6155886;23;20005;-67
2023/04/22 10:06:50;;;;;;;7.32;4.97;;;18.40;71.20;;;;;;6155089;23;20089;-67
2023/04/22 10:09:19;;;;;;;9.35;4.38;;;18.50;70.50;;;;;;6155094;23;20061;-67
2023/04/22 10:11:45;;;;;;;4.43;3.28;;;18.60;70.00;;;;;;6155192;23;20092;-67
2023/04/22 10:14:13;;;;;;;4.57;3.65;;;18.70;69.60;;;;;;6155606;23;20022;-67
2023/04/22 10:16:41;;;;;;;6.43;3.50;;;18.80;70.10;;;;;;6155567;23;20009;-67
2023/04/22 10:19:12;;;;;;;6.38;3.72;;;18.90;69.30;;;;;;6155152;23;20006;-67
2023/04/22 10:21:41;;;;;;;5.80;3.85;;;19.00;69.00;;;;;;6129417;23;20397;-67
2023/04/22 10:24:17;;;;;;;7.05;3.72;;;19.10;69.00;;;;;;6155412;23;20009;-67
2023/04/22 10:27:10;;;;;;;7.15;3.33;;;19.20;66.50;;;;;;6155346;23;20040;-67
2023/04/22 10:29:38;;;;;;;4.93;3.40;;;19.30;65.90;;;;;;6151913;23;20009;-67
2023/04/22 10:32:17;;;;;;;5.45;4.00;;;19.30;65.00;;;;;;6155371;23;20032;-67
2023/04/22 10:34:45;;;;;;;5.03;3.63;;;19.40;65.10;;;;;;6155453;23;20021;-67
2023/04/22 10:37:12;;;;;;;7.82;3.83;;;19.40;65.10;;;;;;6155605;23;20001;-67
2023/04/22 10:39:39;;;;;;;7.07;4.38;;;19.50;67.40;;;;;;6155199;23;20057;-67
2023/04/22 10:42:11;;;;;;;7.70;5.15;;;19.60;67.00;;;;;;6155480;23;20340;-67
2023/04/22 10:45:12;;;;;;;6.03;4.57;;;19.60;66.30;;;;;;6155291;23;20420;-67
2023/04/22 10:47:39;;;;;;;4.97;4.32;;;19.70;65.10;;;;;;6155155;23;20084;-66
2023/04/22 10:50:15;;;;;;;7.72;3.88;;;19.70;65.40;;;;;;6155152;23;20025;-66
2023/04/22 10:52:42;;;;;;;4.70;3.78;;;19.90;64.90;;;;;;6156452;23;20006;-66
2023/04/22 10:55:09;;;;;;;5.63;4.32;;;19.90;65.90;;;;;;6156552;23;20002;-66
2023/04/22 10:57:40;;;;;;;5.65;3.67;;;20.00;63.10;;;;;;6156888;23;20106;-67
2023/04/22 11:00:28;;;;;;;4.40;3.78;;;20.10;63.10;;;;;;6156743;23;20012;-66
2023/04/22 11:03:09;;;;;;;4.65;4.00;;;20.10;63.70;;;;;;6156898;23;20012;-66
2023/04/22 11:05:36;;;;;;;5.20;3.97;;;20.20;63.50;;;;;;6156621;23;20002;-67
2023/04/22 11:08:04;;;;;;;6.68;4.13;;;20.40;62.30;;;;;;6156596;23;19997;-67
2023/04/22 11:10:46;;;;;;;4.88;4.38;;;20.40;61.70;;;;;;6156782;23;20471;-67
2023/04/22 11:13:18;;;;;;;4.47;4.07;;;20.50;62.30;;;;;;6154852;23;20078;-67
2023/04/22 11:15:45;;;;;;;;;;;20.50;62.40;;;;;;6153813;23;20190;-67
2023/04/22 11:18:21;;;;;;;4.38;3.83;;;20.60;61.00;;;;;;6154460;23;19935;-66
2023/04/22 11:20:48;;;;;;;6.05;3.42;;;20.60;62.50;;;;;;6156857;23;20014;-67
2023/04/22 11:23:25;;;;;;;7.38;3.55;;;20.60;59.90;;;;;;6156834;23;20001;-67
2023/04/22 11:25:56;;;;;;;5.68;4.03;;;20.60;59.90;;;;;;6156937;23;20332;-66
2023/04/22 11:28:22;;;;;;;8.93;4.43;;;20.70;60.60;;;;;;6157114;23;20080;-67
2023/04/22 11:30:48;;;;;;;5.45;4.03;;;20.70;60.40;;;;;;6128775;23;20348;-67
2023/04/22 11:33:15;;;;;;;4.22;3.20;;;20.80;58.70;;;;;;6153181;23;20021;-67
2023/04/22 11:35:41;;;;;;;4.88;3.78;;;20.80;57.60;;;;;;6153131;23;20335;-67
2023/04/22 11:38:08;;;;;;;4.13;3.40;;;20.90;59.10;;;;;;6155341;23;20012;-67
2023/04/22 11:40:37;;;;;;;3.97;2.40;;;20.90;58.00;;;;;;6155919;23;20324;-67
2023/04/22 11:43:05;;;;;;;3.72;2.50;;;21.00;55.70;;;;;;6156859;23;20002;-68
2023/04/22 11:45:33;;;;;;;3.17;2.20;;;21.00;54.70;;;;;;6156510;23;20022;-68
2023/04/22 11:48:01;;;;;;;3.28;2.90;;;21.00;54.50;;;;;;6156434;23;20004;-67
2023/04/22 11:50:33;;;;;;;7.10;3.70;;;21.10;56.00;;;;;;6156113;23;20031;-67
2023/04/22 11:53:02;;;;;;;;;;;21.10;57.70;;;;;;6156197;23;20020;-67
2023/04/22 11:55:37;;;;;;;3.65;2.80;;;21.10;58.40;;;;;;6156402;23;19900;-67
2023/04/22 11:58:11;;;;;;;4.25;3.20;;;21.20;58.10;;;;;;6156248;23;20001;-67
2023/04/22 12:00:43;;;;;;;4.45;2.78;;;21.30;58.40;;;;;;6156055;23;20060;-67
2023/04/22 12:03:13;;;;;;;;;;;21.30;57.50;;;;;;6156723;23;20027;-67
2023/04/22 12:05:45;;;;;;;4.70;2.95;;;21.40;58.10;;;;;;6156197;23;19905;-68
2023/04/22 12:08:15;;;;;;;5.20;2.87;;;21.40;56.80;;;;;;6155587;23;20026;-67
2023/04/22 12:10:43;;;;;;;3.95;2.65;;;21.50;57.00;;;;;;6156004;23;20001;-67
2023/04/22 12:13:09;;;;;;;4.53;2.60;;;21.60;57.90;;;;;;6155865;23;20314;-67
2023/04/22 12:15:42;;;;;;;3.13;2.28;;;21.70;55.90;;;;;;6155369;23;20005;-67
2023/04/22 12:18:11;;;;;;;3.60;2.78;;;21.70;55.20;;;;;;6156089;23;20309;-67
2023/04/22 12:20:38;;;;;;;2.90;2.22;;;21.80;55.10;;;;;;6156146;23;20016;-67
2023/04/22 12:23:04;;;;;;;2.50;2.22;;;21.80;54.70;;;;;;6155835;23;20009;-67
2023/04/22 12:25:32;;;;;;;5.13;2.47;;;21.90;54.20;;;;;;6155727;23;20005;-67
2023/04/22 12:27:58;;;;;;;3.42;2.65;;;22.00;55.30;;;;;;6152587;23;20009;-67
2023/04/22 12:30:24;;;;;;;3.63;2.53;;;22.10;54.60;;;;;;6152577;23;20005;-67
2023/04/22 12:32:51;;;;;;;5.63;2.90;;;22.20;55.10;;;;;;6154123;23;20036;-68
2023/04/22 12:35:17;;;;;;;5.30;2.80;;;22.30;54.30;;;;;;6156116;23;20052;-67
2023/04/22 12:37:43;;;;;;;4.03;2.72;;;22.30;54.30;;;;;;6156303;23;20005;-66
2023/04/22 12:40:09;;;;;;;6.05;3.63;;;22.40;53.70;;;;;;6155931;23;20001;-66
2023/04/22 12:42:35;;;;;;;7.35;3.60;;;22.40;53.60;;;;;;6155732;23;20013;-67
2023/04/22 12:45:01;;;;;;;4.72;3.90;;;22.30;54.80;;;;;;6156187;23;20001;-67